Impacts TAF Board INFO
FOR SITUATIONAL AWARENESS. NOT TO BE USED FOR FLIGHT PLANNING PURPOSES.
IDs:

KDFW - Dallas-Ft Worth Intl, TX, US

Issued at 0854 UTC 23 May 2018
Updated at 1114 UTC 23 May 2018
Potential Impact None Slight Moderate High
Time1053Z 23/12Z 23/13Z 23/14Z 23/15Z 23/16Z 23/17Z 23/18Z 23/19Z 23/20Z 23/21Z 23/22Z 23/23Z 24/00Z>>
Type OBS PRVL PRVL PRVL PRVL PRVL PRVL PRVL PRVL PRVL PRVL PRVL PRVL PRVL
VIS 10 >6 >6 >6 >6 >6 >6 >6 >6 >6 >6 >6 >6 >6
CIG -- -- -- -- -- -- 50 50 50 50 50 50 50 50
Cover FEW SCT SCT SCT SCT SCT BKN BKN BKN BKN BKN BKN BKN BKN
FltCat VFR VFR VFR VFR VFR VFR VFR VFR VFR VFR VFR VFR VFR VFR
WX -- -- -- -- -- -- -- -- -- -- -- -- -- --
WDir 150 160 160 160 160 160 160 160 160 160 160 160 160 160
WSpd 3 6 6 7 7 7 8 8 8 8 8 8 8 8
WGst -- -- -- -- -- -- -- -- -- -- -- -- -- --

Raw TAF
KDFW 230854Z 2309/2412 16006KT P6SM SCT300
  FM231400 16007KT P6SM SCT025
  FM231700 16008KT P6SM BKN050
  FM240100 15007KT P6SM BKN250


Raw METAR
KDFW 231053Z 15003KT 10SM FEW300 22/20 A2999 RMK AO2 SLP147 T02170200
KDFW 230953Z 11004KT 10SM FEW300 22/19 A2997 RMK AO2 SLP141 T02220194
KDFW 230853Z 16004KT 10SM FEW110 FEW300 22/19 A2996 RMK AO2 SLP136 T02220194 58008

METAR Board
Radar Display
Forecast Discussion

FOR SITUATIONAL AWARENESS. NOT TO BE USED FOR FLIGHT PLANNING PURPOSES.